Time;durP1;ratioP1;P1;durP2;ratioP2;P2;SDS_P1;SDS_P2;PMS_P1;PMS_P2;Temp;Humidity;BMP_temperature;BMP_pressure;BME280_temperature;BME280_humidity;BME280_pressure;Samples;Min_cycle;Max_cycle;Signal;HPM_P1;HPM_P2
2022/08/02 00:01:24;;;;;;;2.85;0.88;;;;;;;18.99;100.00;98868.03;5050687;28;20384;-65
2022/08/02 00:03:49;;;;;;;2.90;0.95;;;;;;;18.96;100.00;98860.31;5046594;28;20473;-65
2022/08/02 00:06:15;;;;;;;1.35;0.65;;;;;;;18.92;100.00;98861.91;5052282;28;20024;-65
2022/08/02 00:08:40;;;;;;;3.25;0.95;;;;;;;18.93;100.00;98862.75;5050800;28;20039;-65
2022/08/02 00:11:06;;;;;;;2.95;1.10;;;;;;;18.84;100.00;98865.13;5043046;28;20021;-63
2022/08/02 00:13:31;;;;;;;1.05;0.85;;;;;;;18.85;100.00;98865.94;5045438;28;20037;-63
2022/08/02 00:15:56;;;;;;;2.92;1.00;;;;;;;18.69;100.00;98864.88;5053180;28;20387;-63
2022/08/02 00:18:22;;;;;;;1.27;0.73;;;;;;;18.67;100.00;98872.53;5066627;28;20081;-63
2022/08/02 00:20:47;;;;;;;1.63;0.70;;;;;;;18.68;100.00;98876.91;5046576;28;20021;-63
2022/08/02 00:23:12;;;;;;;0.75;0.70;;;;;;;18.58;100.00;98872.97;5039846;28;20175;-65
2022/08/02 00:25:38;;;;;;;1.85;0.88;;;;;;;18.57;100.00;98879.53;5042025;28;20047;-65
2022/08/02 00:28:03;;;;;;;2.97;0.93;;;;;;;18.50;100.00;98875.34;5044539;28;20027;-63
2022/08/02 00:30:29;;;;;;;2.97;0.80;;;;;;;18.52;100.00;98874.00;5048165;28;20070;-63
2022/08/02 00:32:54;;;;;;;2.15;0.75;;;;;;;18.43;100.00;98880.97;5047564;28;20074;-63
2022/08/02 00:35:20;;;;;;;1.70;0.70;;;;;;;18.48;100.00;98875.56;5048477;28;20412;-63
2022/08/02 00:37:45;;;;;;;2.75;0.80;;;;;;;18.44;100.00;98876.31;5040244;28;20033;-63
2022/08/02 00:40:11;;;;;;;1.73;0.80;;;;;;;18.52;100.00;98878.63;5047326;28;20460;-65
2022/08/02 00:42:38;;;;;;;1.77;0.90;;;;;;;18.47;100.00;98878.56;5034017;28;20032;-63
2022/08/02 00:45:03;;;;;;;1.40;0.77;;;;;;;18.43;100.00;98880.97;5042034;28;20040;-64
2022/08/02 00:47:29;;;;;;;2.65;0.95;;;;;;;18.38;100.00;98879.00;5046957;28;20027;-64
2022/08/02 00:49:54;;;;;;;1.50;0.95;;;;;;;18.38;100.00;98883.66;5046459;28;20028;-63
2022/08/02 00:52:21;;;;;;;2.58;0.75;;;;;;;18.30;100.00;98881.34;5045293;28;20031;-64
2022/08/02 00:54:47;;;;;;;2.15;0.70;;;;;;;18.33;100.00;98875.34;5043305;28;20024;-64
2022/08/02 00:57:12;;;;;;;1.38;0.80;;;;;;;18.31;100.00;98878.38;5049454;28;20161;-64
2022/08/02 00:59:37;;;;;;;2.03;1.00;;;;;;;18.28;100.00;98880.75;5050311;28;20034;-64
2022/08/02 01:02:03;;;;;;;3.35;0.93;;;;;;;18.24;100.00;98882.38;5046047;28;20025;-64
2022/08/02 01:04:28;;;;;;;1.92;1.08;;;;;;;18.23;100.00;98880.69;5044947;28;20086;-64
2022/08/02 01:06:54;;;;;;;3.58;1.00;;;;;;;18.15;100.00;98852.63;5050292;28;20029;-64
2022/08/02 01:09:19;;;;;;;1.58;1.00;;;;;;;18.27;100.00;98862.69;5052409;28;20021;-64
2022/08/02 01:11:45;;;;;;;1.92;1.00;;;;;;;18.21;100.00;98872.75;5043284;28;20040;-64
2022/08/02 01:14:13;;;;;;;3.67;1.25;;;;;;;18.07;100.00;98880.44;5038439;28;20027;-64
2022/08/02 01:16:45;;;;;;;2.10;1.08;;;;;;;17.98;100.00;98878.41;5045377;28;20025;-64
2022/08/02 01:19:37;;;;;;;1.38;0.93;;;;;;;18.01;100.00;98886.94;5046029;28;20024;-64
2022/08/02 01:22:25;;;;;;;5.93;1.50;;;;;;;18.00;100.00;98881.69;5013928;28;20060;-64
2022/08/02 01:25:32;;;;;;;3.60;1.10;;;;;;;18.01;100.00;98894.31;5037923;28;20135;-68
2022/08/02 01:28:18;;;;;;;1.63;0.80;;;;;;;18.02;100.00;98905.00;5043047;28;20051;-64
2022/08/02 01:30:46;;;;;;;1.42;0.95;;;;;;;17.99;100.00;98907.44;5042747;28;20078;-64
2022/08/02 01:33:15;;;;;;;3.17;1.02;;;;;;;17.94;100.00;98905.44;5042502;28;20466;-64
2022/08/02 01:35:44;;;;;;;3.05;1.00;;;;;;;17.98;100.00;98897.56;5048661;28;20032;-64
2022/08/02 01:38:26;;;;;;;5.50;1.08;;;;;;;18.06;100.00;98897.97;5044265;28;20485;-64
2022/08/02 01:40:53;;;;;;;3.38;0.90;;;;;;;17.91;100.00;98895.81;5045172;28;20028;-66
2022/08/02 01:43:21;;;;;;;2.05;1.10;;;;;;;17.94;100.00;98897.22;5051807;28;20040;-64
2022/08/02 01:45:47;;;;;;;3.00;0.93;;;;;;;17.87;100.00;98899.31;5051653;28;20029;-64
2022/08/02 01:48:15;;;;;;;3.33;1.10;;;;;;;17.81;100.00;98892.91;5051964;28;20028;-66
2022/08/02 01:50:41;;;;;;;4.82;1.20;;;;;;;17.68;100.00;98876.78;5048373;28;20025;-64
2022/08/02 01:53:09;;;;;;;2.05;1.20;;;;;;;17.80;100.00;98899.47;5043123;28;20043;-64
2022/08/02 01:55:41;;;;;;;5.35;1.08;;;;;;;17.82;100.00;98902.78;5067185;28;20050;-64
2022/08/02 01:58:13;;;;;;;3.05;1.38;;;;;;;17.83;100.00;98901.69;5052288;28;20356;-64
2022/08/02 02:00:39;;;;;;;1.42;1.02;;;;;;;17.77;100.00;98899.09;5049965;28;20051;-64
2022/08/02 02:03:28;;;;;;;1.50;1.02;;;;;;;17.73;100.00;98905.06;5046625;28;20443;-65
2022/08/02 02:05:56;;;;;;;3.13;1.17;;;;;;;17.67;100.00;98906.06;5044576;28;20048;-64
2022/08/02 02:08:31;;;;;;;4.63;1.40;;;;;;;17.64;100.00;98912.03;5050329;28;20378;-64
2022/08/02 02:10:57;;;;;;;1.23;0.95;;;;;;;17.58;100.00;98906.69;5050072;28;20090;-64
2022/08/02 02:13:25;;;;;;;2.20;1.00;;;;;;;17.61;100.00;98906.22;5047767;28;20021;-64
2022/08/02 02:15:51;;;;;;;2.58;1.17;;;;;;;17.57;100.00;98908.59;5051292;28;20078;-64
2022/08/02 02:18:22;;;;;;;2.80;1.13;;;;;;;17.43;100.00;98896.31;5064829;22;20024;-72
2022/08/02 02:20:47;;;;;;;2.05;1.10;;;;;;;17.51;100.00;98912.34;5108246;28;20035;-71
2022/08/02 02:23:13;;;;;;;1.35;0.75;;;;;;;17.53;100.00;98908.28;5107202;28;20036;-71
2022/08/02 02:25:43;;;;;;;1.33;0.80;;;;;;;17.53;100.00;98911.00;5116061;28;20016;-72
2022/08/02 02:28:32;;;;;;;1.55;1.10;;;;;;;17.53;100.00;98911.00;5113453;28;20027;-72
2022/08/02 02:31:04;;;;;;;1.10;0.93;;;;;;;17.45;100.00;98892.28;5115062;28;20087;-73
2022/08/02 02:33:31;;;;;;;1.73;1.10;;;;;;;17.47;100.00;98900.22;5086683;28;20035;-73
2022/08/02 02:35:59;;;;;;;5.47;1.20;;;;;;;17.42;100.00;98902.84;5093198;28;20031;-73
2022/08/02 02:38:27;;;;;;;1.30;0.80;;;;;;;17.36;100.00;98893.72;5074929;28;20028;-74
2022/08/02 02:40:55;;;;;;;1.37;1.00;;;;;;;17.19;100.00;98876.47;5087905;28;20955;-72
2022/08/02 02:43:23;;;;;;;2.17;1.15;;;;;;;17.21;100.00;98888.81;5090893;28;20282;-74
2022/08/02 02:45:49;;;;;;;1.80;1.15;;;;;;;17.04;100.00;98880.56;5090642;28;20063;-72
2022/08/02 02:48:14;;;;;;;1.40;1.10;;;;;;;16.95;100.00;98873.84;5087242;28;20047;-73
2022/08/02 02:50:41;;;;;;;1.58;1.10;;;;;;;16.97;100.00;98889.97;5090732;28;20028;-73
2022/08/02 02:53:09;;;;;;;3.35;1.25;;;;;;;16.86;100.00;98875.28;5089292;28;20023;-73
2022/08/02 02:55:34;;;;;;;3.45;1.55;;;;;;;16.80;100.00;98855.22;5087950;28;20092;-73
2022/08/02 02:58:01;;;;;;;2.40;1.30;;;;;;;17.22;100.00;98875.97;5076864;28;20490;-72
2022/08/02 03:03:12;;;;;;;2.65;1.05;;;;;;;17.28;100.00;98867.59;5084559;28;20035;-73
2022/08/02 03:05:38;;;;;;;6.30;1.30;;;;;;;17.22;100.00;98871.34;5088501;28;20023;-72
2022/08/02 03:08:03;;;;;;;4.03;1.58;;;;;;;17.17;100.00;98876.69;5092731;28;20111;-73
2022/08/02 03:10:29;;;;;;;3.65;1.67;;;;;;;17.03;100.00;98870.72;5090021;28;20362;-72
2022/08/02 03:12:56;;;;;;;3.58;1.40;;;;;;;16.83;100.00;98871.13;5093715;28;20028;-73
2022/08/02 03:15:25;;;;;;;3.25;1.25;;;;;;;16.83;100.00;98857.47;5084050;28;20028;-73
2022/08/02 03:17:50;;;;;;;2.58;1.30;;;;;;;16.74;100.00;98860.78;5070830;28;20058;-73
2022/08/02 03:20:18;;;;;;;3.78;1.50;;;;;;;16.65;100.00;98865.78;5069665;28;20048;-73
2022/08/02 03:22:45;;;;;;;1.77;1.23;;;;;;;16.62;100.00;98874.47;5084358;28;20032;-73
2022/08/02 03:25:11;;;;;;;2.60;1.50;;;;;;;16.58;100.00;98884.22;5089651;28;20029;-73
2022/08/02 03:27:37;;;;;;;3.20;1.42;;;;;;;16.59;100.00;98886.72;5073676;28;20023;-73
2022/08/02 03:30:05;;;;;;;3.17;1.70;;;;;;;16.57;100.00;98879.84;5085398;28;20021;-73
2022/08/02 03:32:32;;;;;;;3.70;1.50;;;;;;;16.41;100.00;98871.31;5077425;28;20069;-73
2022/08/02 03:34:58;;;;;;;2.55;1.23;;;;;;;16.38;100.00;98896.38;5088090;28;20027;-75
2022/08/02 03:37:24;;;;;;;2.90;1.48;;;;;;;16.24;100.00;98875.81;5092209;28;20027;-72
2022/08/02 03:39:52;;;;;;;5.32;1.55;;;;;;;16.22;100.00;98894.38;5089984;28;20020;-71
2022/08/02 03:42:18;;;;;;;1.83;1.30;;;;;;;16.16;100.00;98895.28;5082056;28;20036;-71
2022/08/02 03:44:45;;;;;;;2.17;1.30;;;;;;;16.14;100.00;98886.53;5064955;28;20028;-71
2022/08/02 03:47:11;;;;;;;3.72;1.45;;;;;;;16.11;100.00;98898.75;5083909;28;20016;-71
2022/08/02 03:49:37;;;;;;;2.17;1.40;;;;;;;16.08;100.00;98904.66;5082927;28;20560;-70
2022/08/02 03:52:03;;;;;;;3.45;1.23;;;;;;;16.11;100.00;98914.28;5094442;28;20032;-70
2022/08/02 03:54:28;;;;;;;2.97;1.20;;;;;;;16.16;100.00;98914.41;5088652;28;20031;-70
2022/08/02 03:56:54;;;;;;;1.60;1.25;;;;;;;16.14;100.00;98905.63;5096263;28;20505;-71
2022/08/02 03:59:19;;;;;;;2.05;1.42;;;;;;;16.16;100.00;98917.13;5087012;28;20113;-70
2022/08/02 04:01:45;;;;;;;2.45;1.42;;;;;;;16.15;100.00;98916.31;5091320;28;20028;-69
2022/08/02 04:04:10;;;;;;;4.35;1.45;;;;;;;16.09;100.00;98905.53;5084192;28;20024;-72
2022/08/02 04:06:36;;;;;;;2.15;1.45;;;;;;;16.13;100.00;98917.59;5089810;28;20115;-70
2022/08/02 04:09:01;;;;;;;5.25;1.60;;;;;;;16.15;100.00;98927.22;5086888;28;21342;-69
2022/08/02 04:11:32;;;;;;;2.83;1.40;;;;;;;16.15;100.00;98926.41;5089549;28;20069;-69
2022/08/02 04:14:05;;;;;;;2.03;1.35;;;;;;;16.20;100.00;98935.53;5081953;28;20553;-69
2022/08/02 04:16:39;;;;;;;2.60;1.52;;;;;;;16.31;100.00;98930.31;5090043;28;20343;-68
2022/08/02 04:19:08;;;;;;;1.55;1.08;;;;;;;16.35;100.00;98940.53;5090745;28;20024;-67
2022/08/02 04:21:37;;;;;;;2.50;1.50;;;;;;;16.42;100.00;98943.94;5089670;28;20078;-66
2022/08/02 04:24:06;;;;;;;3.38;2.17;;;;;;;16.56;100.00;98943.72;5092095;28;20481;-66
2022/08/02 04:26:33;;;;;;;1.95;1.45;;;;;;;16.68;100.00;98941.81;5088393;28;20497;-66
2022/08/02 04:28:59;;;;;;;3.70;1.50;;;;;;;16.74;100.00;98946.31;5087722;28;20077;-66
2022/08/02 04:31:25;;;;;;;3.63;1.60;;;;;;;16.78;100.00;98947.53;5092924;28;20027;-66
2022/08/02 04:33:51;;;;;;;3.17;1.48;;;;;;;16.81;100.00;98941.56;5086273;28;20028;-66
2022/08/02 04:36:17;;;;;;;4.97;2.10;;;;;;;16.88;100.00;98951.56;5086995;28;20016;-68
2022/08/02 04:38:42;;;;;;;5.88;2.10;;;;;;;16.97;100.00;98939.16;5092141;28;20032;-66
2022/08/02 04:41:07;;;;;;;5.28;1.85;;;;;;;16.96;100.00;98932.88;5088592;28;20492;-67
2022/08/02 04:43:39;;;;;;;4.20;1.67;;;;;;;17.06;100.00;98948.66;5085815;28;20035;-68
2022/08/02 04:46:04;;;;;;;4.18;1.80;;;;;;;17.12;100.00;98941.41;5089970;28;20477;-66
2022/08/02 04:48:29;;;;;;;4.32;1.90;;;;;;;17.34;100.00;98936.91;5080250;28;20032;-68
2022/08/02 04:50:55;;;;;;;4.55;2.03;;;;;;;17.42;100.00;98935.69;5089907;28;20023;-62
2022/08/02 04:53:20;;;;;;;5.25;2.40;;;;;;;17.51;100.00;98935.03;5083860;28;20109;-64
2022/08/02 04:55:46;;;;;;;6.00;2.63;;;;;;;17.48;100.00;98948.41;5088145;28;20027;-67
2022/08/02 04:58:13;;;;;;;4.90;2.45;;;;;;;17.60;100.00;98948.31;5067590;28;20035;-64
2022/08/02 05:00:38;;;;;;;3.10;1.77;;;;;;;17.76;100.00;98944.78;5089742;28;20469;-64
2022/08/02 05:03:03;;;;;;;3.50;2.15;;;;;;;18.00;100.00;98952.88;5091585;28;20038;-65
2022/08/02 05:05:29;;;;;;;6.78;2.00;;;;;;;18.10;100.00;98923.78;5086578;28;20028;-65
2022/08/02 05:07:54;;;;;;;4.47;2.13;;;;;;;18.37;100.00;98936.78;5086594;28;20477;-69
2022/08/02 05:10:21;;;;;;;5.68;2.03;;;;;;;18.51;100.00;98916.16;5081438;28;20030;-68
2022/08/02 05:12:46;;;;;;;4.10;1.75;;;;;;;18.74;100.00;98937.03;5082269;28;20103;-69
2022/08/02 05:15:15;;;;;;;4.90;1.67;;;;;;;19.04;100.00;98947.59;5086478;28;20111;-69
2022/08/02 05:17:40;;;;;;;3.47;1.60;;;;;;;19.14;100.00;98946.06;5087187;28;20165;-69
2022/08/02 05:20:06;;;;;;;5.28;1.95;;;;;;;19.12;100.00;98951.81;5091687;28;20115;-67
2022/08/02 05:22:31;;;;;;;3.72;1.63;;;;;;;19.19;100.00;98943.41;5065489;28;20020;-62
2022/08/02 05:24:57;;;;;;;2.90;1.80;;;;;;;19.12;100.00;98948.25;5088143;28;20478;-62
2022/08/02 05:27:22;;;;;;;2.70;1.55;;;;;;;19.32;100.00;98939.44;5089942;28;20031;-65
2022/08/02 05:29:50;;;;;;;4.10;1.70;;;;;;;19.42;100.00;98945.84;5089397;28;20777;-67
2022/08/02 05:32:16;;;;;;;4.85;1.88;;;;;;;19.06;100.00;98917.19;5072147;28;20079;-66
2022/08/02 05:34:41;;;;;;;3.00;1.75;;;;;;;19.30;100.00;98938.84;5080969;28;20032;-69
2022/08/02 05:37:06;;;;;;;5.28;2.00;;;;;;;19.25;100.00;98950.59;5086003;28;20107;-67
2022/08/02 05:39:31;;;;;;;3.13;1.73;;;;;;;19.37;100.00;98954.03;5087235;28;20049;-67
2022/08/02 05:41:57;;;;;;;2.60;1.65;;;;;;;19.22;100.00;98942.88;5083572;28;20068;-66
2022/08/02 05:44:22;;;;;;;2.50;1.50;;;;;;;19.42;100.00;98948.59;5081709;28;20046;-66
2022/08/02 05:46:47;;;;;;;6.63;1.70;;;;;;;19.73;100.00;98945.34;5087731;28;20031;-67
2022/08/02 05:49:12;;;;;;;3.10;1.70;;;;;;;19.93;100.00;98948.31;5092556;28;20031;-63
2022/08/02 05:51:44;;;;;;;5.45;1.60;;;;;;;20.02;100.00;98945.94;5088736;28;20030;-64
2022/08/02 05:54:19;;;;;;;8.00;1.88;;;;;;;20.12;100.00;98945.97;5081570;28;20032;-64
2022/08/02 05:56:47;;;;;;;4.50;1.75;;;;;;;20.18;100.00;98955.94;5089624;28;20036;-64
2022/08/02 05:59:45;;;;;;;3.75;1.65;;;;;;;20.33;100.00;98947.81;5085250;28;20035;-64
2022/08/02 06:02:25;;;;;;;4.38;1.73;;;;;;;20.48;100.00;98938.84;5078157;28;20040;-64
2022/08/02 06:05:03;;;;;;;4.65;1.75;;;;;;;20.76;100.00;98936.84;5080225;28;20032;-64
2022/08/02 06:07:29;;;;;;;4.10;2.10;;;;;;;20.82;100.00;98959.69;5067789;28;20377;-64
2022/08/02 06:09:56;;;;;;;6.07;2.42;;;;;;;20.84;100.00;98958.34;5082779;28;20027;-64
2022/08/02 06:12:27;;;;;;;8.27;1.83;;;;;;;21.23;100.00;98957.97;5082048;28;20457;-64
2022/08/02 06:14:53;;;;;;;8.10;2.05;;;;;;;21.53;99.25;98954.50;5069902;28;20534;-67
2022/08/02 06:17:19;;;;;;;6.25;1.98;;;;;;;21.94;94.88;98962.03;5061512;28;20031;-62
2022/08/02 06:19:45;;;;;;;4.30;1.90;;;;;;;22.21;93.89;98964.53;5085229;28;20371;-64
2022/08/02 06:22:16;;;;;;;6.63;2.05;;;;;;;22.54;86.82;98961.22;5091470;28;20466;-64
2022/08/02 06:24:43;;;;;;;3.05;1.75;;;;;;;22.92;81.62;98952.56;5073859;28;20023;-63
2022/08/02 06:27:12;;;;;;;2.75;1.67;;;;;;;23.15;81.62;98956.66;5068343;28;20017;-67
2022/08/02 06:29:39;;;;;;;3.30;2.20;;;;;;;23.54;73.72;98958.69;5091682;28;20382;-68
2022/08/02 06:32:06;;;;;;;3.55;2.03;;;;;;;23.90;73.32;98950.22;5083067;28;20543;-69
2022/08/02 06:34:35;;;;;;;5.68;2.10;;;;;;;24.02;70.71;98950.66;5092410;28;20031;-64
2022/08/02 06:37:16;;;;;;;4.03;2.00;;;;;;;24.86;66.09;98950.44;5091199;28;20040;-67
2022/08/02 06:39:48;;;;;;;3.72;1.92;;;;;;;26.47;58.75;98944.03;5086391;28;20031;-64
2022/08/02 06:42:19;;;;;;;2.90;1.80;;;;;;;28.05;54.08;98941.91;5083734;28;20020;-70
2022/08/02 06:44:44;;;;;;;3.03;2.00;;;;;;;29.01;50.57;98933.00;5088302;28;20024;-65
2022/08/02 06:47:09;;;;;;;3.10;1.73;;;;;;;29.52;49.03;98935.44;5087744;28;20016;-67
2022/08/02 06:49:35;;;;;;;4.95;1.75;;;;;;;30.25;47.28;98947.66;5092984;28;20024;-65
2022/08/02 06:52:02;;;;;;;4.97;2.35;;;;;;;30.26;46.79;98952.09;5090227;28;20024;-67
2022/08/02 06:54:28;;;;;;;9.98;2.17;;;;;;;30.44;46.66;98950.06;5088716;28;20042;-69
2022/08/02 06:56:53;;;;;;;3.78;2.13;;;;;;;31.06;45.12;98950.72;5090220;28;20492;-68
2022/08/02 06:59:18;;;;;;;4.32;2.63;;;;;;;30.86;43.88;98953.09;5084220;28;20469;-68
2022/08/02 07:01:43;;;;;;;6.28;2.35;;;;;;;31.78;42.31;98946.88;5068665;28;20036;-70
2022/08/02 07:04:09;;;;;;;3.85;2.78;;;;;;;31.90;40.96;98946.09;5090003;28;20044;-70
2022/08/02 07:06:34;;;;;;;5.47;2.53;;;;;;;32.27;40.33;98943.50;5085921;28;20032;-69
2022/08/02 07:09:00;;;;;;;5.35;3.00;;;;;;;31.22;42.17;98944.22;5086496;28;20042;-70
2022/08/02 07:11:25;;;;;;;3.45;2.35;;;;;;;33.12;39.34;98945.72;5090628;28;20032;-69
2022/08/02 07:13:50;;;;;;;4.40;2.33;;;;;;;33.47;38.43;98955.63;5089395;28;20024;-70
2022/08/02 07:16:15;;;;;;;5.03;2.53;;;;;;;34.50;36.25;98945.84;5072070;28;20048;-70
2022/08/02 07:18:41;;;;;;;3.42;2.35;;;;;;;35.38;35.21;98945.75;5087784;28;20285;-73
2022/08/02 07:21:06;;;;;;;3.40;2.45;;;;;;;35.36;34.67;98932.03;5085390;28;20085;-70
2022/08/02 07:23:32;;;;;;;2.80;2.20;;;;;;;35.73;33.86;98948.59;5086967;28;20112;-72
2022/08/02 07:25:58;;;;;;;3.80;2.30;;;;;;;36.00;33.08;98949.59;5091924;28;20422;-73
2022/08/02 07:28:23;;;;;;;3.53;1.98;;;;;;;35.83;33.84;98945.19;5089496;28;20036;-74
2022/08/02 07:30:48;;;;;;;3.67;2.40;;;;;;;35.18;34.76;98942.06;5075115;28;20024;-73
2022/08/02 07:33:14;;;;;;;8.55;2.58;;;;;;;35.84;33.71;98948.81;5091901;28;20451;-77
2022/08/02 07:35:39;;;;;;;4.47;2.50;;;;;;;33.68;36.38;98947.91;5093462;28;20057;-71
2022/08/02 07:38:06;;;;;;;6.07;2.50;;;;;;;34.34;35.45;98948.63;5087614;28;20060;-71
2022/08/02 07:40:31;;;;;;;2.97;1.92;;;;;;;36.08;33.54;98950.56;5085799;28;20411;-73
2022/08/02 07:42:57;;;;;;;7.32;1.88;;;;;;;37.32;31.84;98954.09;5088162;28;20036;-72
2022/08/02 07:45:23;;;;;;;4.00;2.13;;;;;;;37.74;30.64;98950.31;5088565;28;20485;-72
2022/08/02 07:47:49;;;;;;;3.30;2.38;;;;;;;36.09;32.18;98953.03;5086405;28;20111;-72
2022/08/02 07:50:16;;;;;;;3.35;2.00;;;;;;;38.42;30.31;98945.53;5073689;28;20107;-73
2022/08/02 07:52:42;;;;;;;5.32;1.83;;;;;;;38.64;29.66;98945.78;5067369;28;20016;-70
2022/08/02 07:55:08;;;;;;;3.10;1.90;;;;;;;38.19;29.80;98948.50;5081469;28;20038;-71
2022/08/02 07:57:35;;;;;;;2.15;1.80;;;;;;;39.20;28.53;98950.38;5089218;28;20550;-70
2022/08/02 08:00:01;;;;;;;3.20;1.90;;;;;;;38.96;28.61;98955.44;5085760;28;20769;-71
2022/08/02 08:02:26;;;;;;;4.90;1.77;;;;;;;39.19;28.56;98943.06;5078131;28;20031;-71
2022/08/02 08:04:52;;;;;;;3.07;1.90;;;;;;;39.53;28.52;98942.94;5084956;28;20047;-71
2022/08/02 08:07:18;;;;;;;3.17;1.60;;;;;;;38.65;28.89;98942.59;5094898;28;20278;-72
2022/08/02 08:09:46;;;;;;;2.65;1.80;;;;;;;38.35;30.01;98939.81;5072655;28;20039;-71
2022/08/02 08:12:11;;;;;;;3.83;1.98;;;;;;;38.57;29.21;98946.56;5087659;28;20043;-75
2022/08/02 08:14:37;;;;;;;1.77;1.52;;;;;;;39.47;28.54;98948.16;5084204;28;20028;-71
2022/08/02 08:17:04;;;;;;;3.85;1.98;;;;;;;39.88;27.58;98934.69;5091412;28;20024;-72
2022/08/02 08:19:30;;;;;;;2.53;1.60;;;;;;;38.47;28.71;98938.75;5086442;28;20027;-74
2022/08/02 08:21:55;;;;;;;2.47;1.45;;;;;;;39.43;28.24;98938.81;5067997;28;20391;-71
2022/08/02 08:24:20;;;;;;;1.77;1.20;;;;;;;39.96;28.36;98940.38;5091571;28;20389;-72
2022/08/02 08:26:45;;;;;;;7.63;2.00;;;;;;;37.84;30.03;98943.19;5084478;28;20028;-74
2022/08/02 08:29:11;;;;;;;3.40;1.87;;;;;;;37.99;29.49;98933.75;5084610;28;20647;-74
2022/08/02 08:31:36;;;;;;;2.60;1.57;;;;;;;36.51;32.00;98946.59;5089861;28;20274;-76
2022/08/02 08:34:03;;;;;;;3.83;1.85;;;;;;;37.72;30.06;98936.56;5077354;22;20312;-78
2022/08/02 08:36:28;;;;;;;2.22;1.80;;;;;;;37.89;30.05;98937.22;5035842;28;20219;-78
2022/08/02 08:38:53;;;;;;;4.45;2.10;;;;;;;38.26;29.78;98942.13;5031492;28;20034;-75
2022/08/02 08:41:19;;;;;;;1.40;1.30;;;;;;;38.84;28.70;98937.91;5031577;28;20021;-74
2022/08/02 08:43:46;;;;;;;3.05;1.88;;;;;;;38.89;28.12;98927.09;5032321;28;20272;-72
2022/08/02 08:46:23;;;;;;;1.85;1.20;;;;;;;39.74;27.32;98933.75;5029526;28;20017;-73
2022/08/02 08:48:52;;;;;;;2.33;1.77;;;;;;;38.87;28.65;98926.63;5029735;28;20028;-72
2022/08/02 08:51:20;;;;;;;5.22;1.83;;;;;;;39.22;27.95;98930.97;5029333;28;20549;-74
2022/08/02 08:53:48;;;;;;;4.93;1.60;;;;;;;38.52;28.19;98935.59;5025823;28;20036;-76
2022/08/02 08:56:15;;;;;;;2.30;1.60;;;;;;;37.57;30.03;98939.56;5026019;28;20033;-68
2022/08/02 08:58:41;;;;;;;2.65;1.70;;;;;;;38.30;29.17;98928.84;5028292;28;20036;-71
2022/08/02 09:01:07;;;;;;;2.03;1.70;;;;;;;39.20;28.07;98931.38;5034644;28;20017;-72
2022/08/02 09:03:32;;;;;;;4.00;1.90;;;;;;;37.80;29.63;98925.38;5031879;28;20067;-72
2022/08/02 09:05:58;;;;;;;1.65;1.42;;;;;;;38.65;28.46;98919.97;5017436;28;20029;-72
2022/08/02 09:08:24;;;;;;;4.90;1.70;;;;;;;38.31;29.38;98922.00;5005393;28;22025;-72
2022/08/02 09:10:49;;;;;;;3.10;2.05;;;;;;;37.90;29.74;98928.34;5028441;28;20778;-71
2022/08/02 09:13:21;;;;;;;4.22;1.55;;;;;;;37.54;29.64;98934.69;5025683;28;20010;-72
2022/08/02 09:16:02;;;;;;;2.45;1.60;;;;;;;36.33;32.29;98932.16;5027739;28;20517;-73
2022/08/02 09:18:32;;;;;;;3.05;1.80;;;;;;;37.63;30.14;98926.78;5021823;28;20022;-75
2022/08/02 09:21:01;;;;;;;2.55;1.73;;;;;;;38.20;30.48;98933.19;5027953;28;20025;-75
2022/08/02 09:23:33;;;;;;;1.98;1.17;;;;;;;38.42;29.84;98925.75;5025512;28;20037;-68
2022/08/02 09:26:01;;;;;;;3.80;1.70;;;;;;;39.74;27.55;98917.56;5031760;28;20028;-74
2022/08/02 09:28:28;;;;;;;4.65;1.60;;;;;;;41.18;26.09;98930.97;5021213;28;20474;-74
2022/08/02 09:31:06;;;;;;;2.20;1.40;;;;;;;40.63;26.39;98928.44;5027562;28;20036;-75
2022/08/02 09:33:32;;;;;;;1.77;1.58;;;;;;;41.11;26.49;98928.16;5027366;28;20104;-70
2022/08/02 09:36:06;;;;;;;3.85;1.30;;;;;;;40.80;25.90;98920.41;5025915;28;20033;-70
2022/08/02 09:38:33;;;;;;;1.35;1.20;;;;;;;41.50;25.43;98920.78;5022038;28;20029;-70
2022/08/02 09:40:59;;;;;;;5.72;1.50;;;;;;;41.46;25.50;98914.31;5025136;28;20491;-70
2022/08/02 09:43:40;;;;;;;2.90;1.60;;;;;;;39.95;26.94;98910.41;5026906;28;20394;-72
2022/08/02 09:46:12;;;;;;;2.50;1.45;;;;;;;40.90;25.83;98917.56;5020850;28;20025;-70
2022/08/02 09:48:54;;;;;;;3.42;1.55;;;;;;;39.30;26.40;98912.03;5025892;28;20053;-70
2022/08/02 09:51:25;;;;;;;6.32;1.60;;;;;;;39.46;27.13;98918.25;5026689;28;20356;-70
2022/08/02 09:54:01;;;;;;;4.70;1.80;;;;;;;38.52;28.32;98905.31;5024545;28;20025;-70
2022/08/02 09:56:38;;;;;;;2.70;1.90;;;;;;;36.25;30.79;98912.69;5020485;28;20030;-70
2022/08/02 09:59:06;;;;;;;2.05;1.63;;;;;;;37.72;29.53;98907.53;5034974;28;20030;-72
2022/08/02 10:01:32;;;;;;;;;;;;;;;39.41;27.10;98901.63;5031954;28;20029;-75
2022/08/02 10:03:59;;;;;;;1.58;1.48;;;;;;;38.10;28.61;98891.50;5031494;28;19913;-74
2022/08/02 10:06:26;;;;;;;3.85;1.50;;;;;;;38.05;28.57;98895.47;5027022;28;20091;-72
2022/08/02 10:08:52;;;;;;;2.78;1.50;;;;;;;39.08;27.85;98894.91;5024623;28;20033;-73
2022/08/02 10:11:22;;;;;;;1.75;1.30;;;;;;;38.97;28.35;98897.66;5024851;28;20052;-71
2022/08/02 10:13:49;;;;;;;4.80;1.35;;;;;;;39.73;27.21;98893.31;5028017;28;20144;-73
2022/08/02 10:16:18;;;;;;;1.93;1.00;;;;;;;40.90;26.31;98896.88;5026362;28;20029;-73
2022/08/02 10:18:44;;;;;;;1.67;1.27;;;;;;;42.24;24.12;98884.81;5027803;28;20036;-73
2022/08/02 10:21:15;;;;;;;1.75;1.27;;;;;;;43.22;23.29;98888.59;5023637;28;20040;-73
2022/08/02 10:23:42;;;;;;;3.22;1.10;;;;;;;41.72;24.57;98881.78;5026370;28;20103;-74
2022/08/02 10:26:11;;;;;;;1.52;1.40;;;;;;;40.88;25.06;98873.78;5025121;28;20033;-73
2022/08/02 10:28:37;;;;;;;2.47;1.33;;;;;;;41.66;24.49;98883.41;5028127;28;20041;-73
2022/08/02 10:31:05;;;;;;;2.47;1.45;;;;;;;41.83;23.96;98868.34;5026672;28;20039;-73
2022/08/02 10:33:34;;;;;;;2.15;1.35;;;;;;;41.75;24.23;98883.81;5023982;28;20406;-74
2022/08/02 10:36:01;;;;;;;3.25;1.30;;;;;;;40.87;24.69;98889.19;5010224;28;20026;-73
2022/08/02 10:38:27;;;;;;;1.50;1.17;;;;;;;40.95;24.78;98883.13;5023963;28;20029;-73
2022/08/02 10:40:54;;;;;;;1.65;1.17;;;;;;;41.29;24.74;98879.84;5025640;28;20080;-73
2022/08/02 10:43:31;;;;;;;1.25;1.15;;;;;;;41.76;24.22;98874.03;5027171;28;20029;-73
2022/08/02 10:46:21;;;;;;;1.25;1.15;;;;;;;42.30;23.40;98860.41;5028918;28;20453;-73
2022/08/02 10:49:10;;;;;;;2.03;1.10;;;;;;;42.77;22.79;98855.22;5024735;28;20390;-73
2022/08/02 10:51:53;;;;;;;2.55;1.00;;;;;;;42.03;23.97;98863.00;5026245;28;20025;-73
2022/08/02 10:54:20;;;;;;;2.92;1.10;;;;;;;42.33;23.73;98856.72;5024959;28;20028;-74
2022/08/02 10:56:47;;;;;;;1.40;1.10;;;;;;;42.04;23.68;98856.88;5027061;28;20088;-74
2022/08/02 10:59:34;;;;;;;1.60;1.15;;;;;;;41.82;24.27;98852.53;5026528;28;20025;-74
2022/08/02 11:02:03;;;;;;;1.40;1.10;;;;;;;42.05;23.78;98852.00;5006741;28;20415;-73
2022/08/02 11:04:35;;;;;;;1.98;0.98;;;;;;;41.63;23.64;98853.81;5023090;28;20037;-73
2022/08/02 11:07:18;;;;;;;1.48;1.25;;;;;;;41.49;24.13;98857.47;5025882;28;20141;-73
2022/08/02 11:09:46;;;;;;;1.52;1.10;;;;;;;41.30;24.41;98857.97;5023614;28;20056;-72
2022/08/02 11:12:17;;;;;;;1.88;1.10;;;;;;;42.54;22.51;98852.94;5026209;28;20482;-73
2022/08/02 11:14:44;;;;;;;1.65;0.80;;;;;;;43.45;21.53;98845.22;5019604;28;20167;-72
2022/08/02 11:17:17;;;;;;;1.40;1.10;;;;;;;41.91;23.37;98846.38;5026741;28;20569;-72
2022/08/02 11:20:07;;;;;;;1.50;1.00;;;;;;;42.16;22.76;98840.56;5027276;28;20065;-72
2022/08/02 11:22:33;;;;;;;1.20;0.93;;;;;;;41.07;23.67;98841.34;5025881;28;21633;-72
2022/08/02 11:25:21;;;;;;;3.00;1.08;;;;;;;41.44;23.25;98829.50;5029383;28;20025;-72
2022/08/02 11:27:52;;;;;;;1.50;1.00;;;;;;;42.51;21.71;98828.19;5022542;28;20025;-73
2022/08/02 11:30:18;;;;;;;2.28;0.80;;;;;;;42.12;22.93;98828.44;5029408;28;20049;-72
2022/08/02 11:32:43;;;;;;;1.80;1.10;;;;;;;43.39;21.70;98824.09;5012743;28;20131;-73
2022/08/02 11:35:09;;;;;;;2.28;1.17;;;;;;;42.64;22.26;98819.94;5005982;28;20231;-75
2022/08/02 11:37:37;;;;;;;1.20;1.10;;;;;;;41.55;23.27;98816.09;5026279;28;20033;-74